Time;durP1;ratioP1;P1;durP2;ratioP2;P2;SDS_P1;SDS_P2;PMS_P1;PMS_P2;Temp;Humidity;BMP_temperature;BMP_pressure;BME280_temperature;BME280_humidity;BME280_pressure;Samples;Min_cycle;Max_cycle;Signal;HPM_P1;HPM_P2
2021/12/20 00:00:18;;;;;;;2.27;1.80;;;4.10;81.40;;;;;;5061848;28;20233;-73
2021/12/20 00:02:49;;;;;;;1.67;1.57;;;4.20;81.40;;;;;;5047272;28;20238;-74
2021/12/20 00:05:15;;;;;;;1.90;1.80;;;4.10;81.40;;;;;;5041582;28;20216;-74
2021/12/20 00:07:41;;;;;;;2.13;1.77;;;4.20;81.40;;;;;;5041026;28;20207;-74
2021/12/20 00:10:08;;;;;;;1.70;1.60;;;4.10;81.50;;;;;;5044074;28;20657;-73
2021/12/20 00:12:34;;;;;;;1.90;1.43;;;4.10;81.60;;;;;;5042388;28;20270;-72
2021/12/20 00:15:00;;;;;;;2.13;1.87;;;4.00;81.80;;;;;;5045453;28;20729;-75
2021/12/20 00:17:26;;;;;;;1.70;1.60;;;4.00;82.00;;;;;;5044326;28;20269;-72
2021/12/20 00:19:52;;;;;;;3.23;1.87;;;3.90;82.20;;;;;;5043171;28;20224;-72
2021/12/20 00:22:17;;;;;;;2.50;1.43;;;4.00;82.30;;;;;;5042797;28;20180;-74
2021/12/20 00:24:43;;;;;;;1.97;1.87;;;3.90;82.60;;;;;;5044531;28;20179;-74
2021/12/20 00:27:11;;;;;;;2.47;2.27;;;3.90;82.80;;;;;;5045256;28;20207;-73
2021/12/20 00:29:37;;;;;;;1.40;1.30;;;3.90;83.00;;;;;;5041850;28;20803;-72
2021/12/20 00:32:03;;;;;;;1.10;1.10;;;3.80;83.20;;;;;;5045343;28;20291;-72
2021/12/20 00:34:29;;;;;;;1.23;1.23;;;3.80;83.20;;;;;;5042025;28;20286;-74
2021/12/20 00:37:03;;;;;;;1.70;1.60;;;3.80;83.40;;;;;;5042585;28;20396;-74
2021/12/20 00:42:16;;;;;;;1.93;1.73;;;3.80;83.50;;;;;;4982548;28;20951;-74
2021/12/20 00:44:42;;;;;;;2.07;1.97;;;3.80;83.60;;;;;;4981724;28;20201;-73
2021/12/20 00:47:08;;;;;;;2.10;1.87;;;3.80;83.50;;;;;;4981924;28;20248;-73
2021/12/20 00:49:33;;;;;;;1.60;1.50;;;3.80;83.30;;;;;;4978580;28;20268;-73
2021/12/20 00:51:59;;;;;;;1.23;1.23;;;3.80;83.30;;;;;;4979822;28;20194;-73
2021/12/20 00:54:25;;;;;;;2.70;1.63;;;3.90;83.10;;;;;;4982307;28;20723;-73
2021/12/20 00:56:51;;;;;;;1.23;1.13;;;3.90;82.90;;;;;;4982151;28;21069;-73
2021/12/20 00:59:17;;;;;;;1.30;1.20;;;3.90;82.90;;;;;;4986048;28;20286;-74
2021/12/20 01:01:43;;;;;;;1.53;1.53;;;3.90;82.90;;;;;;4980572;28;20192;-74
2021/12/20 01:04:09;;;;;;;1.73;1.50;;;4.00;82.70;;;;;;4978895;28;20194;-74
2021/12/20 01:06:34;;;;;;;1.23;1.23;;;4.00;82.40;;;;;;4978778;28;20285;-74
2021/12/20 01:09:01;;;;;;;1.73;1.37;;;4.10;82.30;;;;;;4982345;28;20186;-74
2021/12/20 01:11:28;;;;;;;1.47;1.37;;;4.00;82.20;;;;;;4981103;28;20293;-74
2021/12/20 01:13:55;;;;;;;1.07;1.07;;;4.00;82.30;;;;;;4981839;28;20189;-74
2021/12/20 01:16:30;;;;;;;0.97;0.90;;;4.00;82.30;;;;;;4969562;28;20181;-74
2021/12/20 01:18:57;;;;;;;1.40;1.40;;;4.10;82.30;;;;;;4995737;28;20195;-74
2021/12/20 01:21:23;;;;;;;1.10;1.10;;;4.10;82.20;;;;;;5044301;28;20189;-74
2021/12/20 01:23:49;;;;;;;0.97;0.90;;;4.10;81.90;;;;;;5038838;28;20188;-74
2021/12/20 01:26:15;;;;;;;1.27;1.17;;;4.00;81.90;;;;;;5041385;28;20191;-74
2021/12/20 01:28:43;;;;;;;1.20;1.20;;;4.00;81.80;;;;;;5036006;28;20222;-73
2021/12/20 01:31:09;;;;;;;1.20;1.10;;;4.00;81.80;;;;;;5040738;28;20192;-73
2021/12/20 01:33:35;;;;;;;1.03;1.03;;;4.00;81.80;;;;;;5037684;28;20246;-74
2021/12/20 01:36:01;;;;;;;1.10;1.10;;;4.00;81.70;;;;;;5035093;28;20200;-73
2021/12/20 01:38:27;;;;;;;1.30;0.90;;;4.00;81.70;;;;;;5037674;28;20237;-73
2021/12/20 01:40:53;;;;;;;0.90;0.90;;;4.00;81.60;;;;;;5038250;28;20686;-74
2021/12/20 01:43:19;;;;;;;2.23;0.97;;;4.00;81.70;;;;;;5040228;28;20224;-74
2021/12/20 01:45:48;;;;;;;1.10;1.10;;;4.00;81.70;;;;;;5038496;28;20657;-73
2021/12/20 01:48:18;;;;;;;1.87;0.90;;;4.00;81.70;;;;;;5039273;28;20241;-73
2021/12/20 01:53:13;;;;;;;1.60;1.50;;;4.00;81.60;;;;;;5037172;28;20194;-75
2021/12/20 01:55:39;;;;;;;0.80;0.80;;;4.00;81.70;;;;;;5039128;28;20250;-74
2021/12/20 01:58:05;;;;;;;1.30;1.30;;;4.00;81.70;;;;;;5035585;28;20183;-74
2021/12/20 02:00:31;;;;;;;1.30;1.17;;;3.90;81.70;;;;;;5038863;28;21241;-74
2021/12/20 02:03:00;;;;;;;0.83;0.83;;;3.90;81.90;;;;;;5033860;28;20211;-74
2021/12/20 02:05:47;;;;;;;1.27;1.17;;;3.90;82.00;;;;;;5039804;28;20187;-74
2021/12/20 02:08:17;;;;;;;2.60;1.20;;;3.90;82.00;;;;;;5040215;28;20302;-74
2021/12/20 02:10:45;;;;;;;1.00;1.00;;;3.90;82.00;;;;;;5040079;28;20241;-74
2021/12/20 02:13:15;;;;;;;1.63;1.53;;;3.90;82.10;;;;;;5036080;28;20266;-73
2021/12/20 02:15:41;;;;;;;0.93;0.93;;;3.90;82.10;;;;;;5038982;28;20229;-73
2021/12/20 02:18:07;;;;;;;1.23;1.23;;;3.90;82.20;;;;;;5037162;28;20183;-73
2021/12/20 02:20:35;;;;;;;1.40;1.40;;;3.90;82.20;;;;;;5036866;28;20179;-74
2021/12/20 02:23:01;;;;;;;1.40;1.40;;;3.90;82.20;;;;;;5040407;28;20184;-73
2021/12/20 02:25:28;;;;;;;1.50;1.40;;;3.90;82.30;;;;;;5039829;28;20183;-73
2021/12/20 02:27:55;;;;;;;2.10;1.53;;;3.90;82.30;;;;;;5037858;28;20293;-73
2021/12/20 02:38:28;;;;;;;1.00;1.00;;;3.90;82.70;;;;;;5039520;28;20253;-74
2021/12/20 02:41:07;;;;;;;1.20;1.20;;;3.90;82.70;;;;;;5040390;28;20207;-74
2021/12/20 02:43:37;;;;;;;1.67;1.57;;;3.90;82.80;;;;;;5037682;28;20191;-73
2021/12/20 02:46:07;;;;;;;1.47;1.47;;;3.90;82.80;;;;;;5038053;28;20294;-73
2021/12/20 02:48:33;;;;;;;1.23;1.23;;;3.80;82.90;;;;;;5037677;28;20215;-73
2021/12/20 02:50:59;;;;;;;1.27;1.20;;;3.90;83.00;;;;;;5034737;28;20693;-73
2021/12/20 02:53:25;;;;;;;2.60;1.63;;;3.90;83.00;;;;;;5034323;28;20328;-73
2021/12/20 02:55:50;;;;;;;1.90;1.50;;;3.90;83.10;;;;;;5036298;28;20297;-73
2021/12/20 02:58:16;;;;;;;1.87;1.50;;;3.90;83.20;;;;;;5038719;28;20191;-72
2021/12/20 03:00:42;;;;;;;1.27;1.27;;;3.80;83.20;;;;;;5038238;28;20183;-72
2021/12/20 03:03:08;;;;;;;1.20;1.20;;;3.80;83.10;;;;;;5037068;28;20186;-73
2021/12/20 03:05:35;;;;;;;1.53;1.43;;;3.80;83.20;;;;;;5036942;28;20692;-73
2021/12/20 03:08:02;;;;;;;2.50;1.40;;;3.80;83.20;;;;;;5038492;28;20279;-73
2021/12/20 03:10:29;;;;;;;0.90;0.90;;;3.80;83.40;;;;;;5037471;28;20171;-73
2021/12/20 03:12:56;;;;;;;1.37;1.30;;;3.80;83.40;;;;;;5032493;28;20264;-73
2021/12/20 03:15:25;;;;;;;1.53;1.47;;;3.80;83.50;;;;;;5035449;28;20691;-72
2021/12/20 03:17:54;;;;;;;1.30;1.20;;;3.80;83.50;;;;;;5034471;28;20886;-74
2021/12/20 03:20:21;;;;;;;1.23;1.23;;;3.90;83.40;;;;;;5036576;28;20841;-73
2021/12/20 03:22:47;;;;;;;1.50;1.40;;;3.90;83.30;;;;;;5035445;28;20199;-73
2021/12/20 03:25:13;;;;;;;1.50;1.50;;;3.90;83.50;;;;;;5032710;28;20172;-73
2021/12/20 03:27:39;;;;;;;1.50;1.40;;;3.80;83.40;;;;;;5035015;28;20269;-72
2021/12/20 03:30:08;;;;;;;1.37;1.30;;;3.80;83.50;;;;;;5040527;28;20665;-74
2021/12/20 03:32:33;;;;;;;1.20;1.20;;;3.80;83.50;;;;;;5032499;28;21470;-75
2021/12/20 03:34:59;;;;;;;1.90;1.80;;;3.80;83.50;;;;;;5037826;28;20202;-73
2021/12/20 03:37:26;;;;;;;1.43;1.43;;;3.80;83.50;;;;;;5040215;28;20245;-74
2021/12/20 03:39:52;;;;;;;1.40;1.30;;;3.80;83.50;;;;;;5037712;28;20561;-75
2021/12/20 03:42:19;;;;;;;1.47;1.47;;;3.90;83.40;;;;;;5035975;28;20179;-74
2021/12/20 03:44:45;;;;;;;1.40;1.30;;;3.90;83.40;;;;;;5038319;28;20622;-74
2021/12/20 03:47:12;;;;;;;2.13;1.90;;;3.90;83.40;;;;;;5032621;28;20298;-74
2021/12/20 03:49:42;;;;;;;2.13;2.00;;;3.90;83.40;;;;;;5035160;28;20183;-74
2021/12/20 03:52:09;;;;;;;2.07;1.97;;;3.90;83.60;;;;;;5041606;28;20183;-74
2021/12/20 03:54:36;;;;;;;2.60;2.40;;;3.90;83.70;;;;;;5037421;28;20176;-73
2021/12/20 03:57:02;;;;;;;2.10;1.90;;;4.00;83.80;;;;;;5037293;28;20579;-74
2021/12/20 03:59:29;;;;;;;1.63;1.53;;;4.00;83.70;;;;;;5040486;28;20208;-74
2021/12/20 04:01:55;;;;;;;2.10;2.00;;;4.10;83.40;;;;;;5040278;28;20176;-74
2021/12/20 04:04:21;;;;;;;2.03;1.93;;;4.10;83.40;;;;;;5039054;28;20180;-74
2021/12/20 04:06:47;;;;;;;2.17;1.97;;;4.10;83.60;;;;;;5038114;28;20660;-73
2021/12/20 04:09:13;;;;;;;2.50;2.30;;;4.10;83.70;;;;;;5033911;28;20169;-74
2021/12/20 04:11:38;;;;;;;2.70;2.60;;;4.00;84.10;;;;;;5034308;28;20215;-74
2021/12/20 04:14:04;;;;;;;2.90;2.70;;;4.00;84.20;;;;;;5036060;28;20180;-74
2021/12/20 04:16:30;;;;;;;3.90;2.23;;;3.90;84.70;;;;;;5038276;28;20184;-74
2021/12/20 04:18:56;;;;;;;2.37;2.17;;;3.90;85.00;;;;;;5038279;28;20658;-74
2021/12/20 04:21:22;;;;;;;2.10;2.00;;;3.80;85.50;;;;;;5041357;28;20191;-74
2021/12/20 04:23:48;;;;;;;2.07;1.90;;;3.80;85.60;;;;;;5039348;28;20189;-74
2021/12/20 04:26:14;;;;;;;2.77;2.33;;;3.80;85.90;;;;;;5036750;28;20186;-73
2021/12/20 04:28:41;;;;;;;2.20;2.07;;;3.80;86.10;;;;;;5035572;28;20180;-74
2021/12/20 04:31:07;;;;;;;2.20;2.10;;;3.90;86.10;;;;;;5035817;28;20215;-74
2021/12/20 04:33:33;;;;;;;3.73;2.37;;;3.90;86.20;;;;;;5038625;28;20878;-74
2021/12/20 04:35:58;;;;;;;3.03;2.70;;;3.90;86.20;;;;;;5033804;28;20270;-74
2021/12/20 04:38:27;;;;;;;3.03;2.83;;;3.80;86.50;;;;;;5035387;28;21506;-74
2021/12/20 04:40:53;;;;;;;2.27;2.07;;;3.80;86.50;;;;;;5034151;28;20250;-74
2021/12/20 04:43:20;;;;;;;2.37;2.20;;;3.80;86.60;;;;;;5040338;28;20598;-74
2021/12/20 04:45:45;;;;;;;3.30;2.47;;;3.90;86.50;;;;;;5042836;28;20176;-74
2021/12/20 04:48:11;;;;;;;2.30;2.20;;;3.90;86.50;;;;;;5039795;28;20220;-74
2021/12/20 04:50:37;;;;;;;2.53;2.20;;;3.90;86.50;;;;;;5042668;28;20179;-74
2021/12/20 04:53:03;;;;;;;3.47;2.67;;;3.90;86.60;;;;;;5034577;28;20186;-74
2021/12/20 04:55:29;;;;;;;3.40;2.83;;;3.90;86.50;;;;;;5038315;28;20188;-74
2021/12/20 04:57:57;;;;;;;2.97;2.83;;;3.90;86.60;;;;;;5043018;28;20188;-72
2021/12/20 05:00:29;;;;;;;2.23;2.13;;;3.80;86.50;;;;;;5040182;28;20622;-74
2021/12/20 05:02:55;;;;;;;2.13;2.03;;;3.80;86.60;;;;;;5039411;28;20180;-74
2021/12/20 05:05:22;;;;;;;1.77;1.67;;;3.80;86.60;;;;;;5041681;28;20171;-74
2021/12/20 05:07:48;;;;;;;1.67;1.57;;;3.70;86.60;;;;;;5038188;28;20220;-74
2021/12/20 05:10:25;;;;;;;2.03;1.93;;;3.70;86.80;;;;;;5040846;28;20641;-74
2021/12/20 05:12:55;;;;;;;2.77;2.47;;;3.60;87.20;;;;;;5042521;28;20196;-74
2021/12/20 05:15:22;;;;;;;3.13;2.63;;;3.60;87.50;;;;;;5042149;28;20187;-74
2021/12/20 05:17:48;;;;;;;1.83;1.73;;;3.60;87.70;;;;;;5038264;28;20184;-74
2021/12/20 05:20:14;;;;;;;1.97;1.87;;;3.50;87.80;;;;;;5039287;28;20233;-74
2021/12/20 05:22:40;;;;;;;1.83;1.73;;;3.50;88.00;;;;;;5042065;28;20255;-74
2021/12/20 05:25:06;;;;;;;1.60;1.50;;;3.50;88.20;;;;;;5040586;28;20597;-74
2021/12/20 05:27:31;;;;;;;1.93;1.83;;;3.50;88.30;;;;;;5038973;28;20218;-74
2021/12/20 05:29:59;;;;;;;2.30;2.13;;;3.50;88.20;;;;;;5037076;28;20180;-74
2021/12/20 05:32:25;;;;;;;1.80;1.70;;;3.40;88.30;;;;;;5040277;28;20569;-74
2021/12/20 05:34:50;;;;;;;2.17;1.73;;;3.40;88.50;;;;;;5038702;28;20202;-75
2021/12/20 05:37:18;;;;;;;1.63;1.50;;;3.40;88.70;;;;;;5040896;28;20203;-73
2021/12/20 05:39:44;;;;;;;2.37;2.17;;;3.30;88.80;;;;;;5033794;28;20295;-74
2021/12/20 05:42:10;;;;;;;1.77;1.77;;;3.30;88.90;;;;;;5035741;28;20233;-73
2021/12/20 05:44:36;;;;;;;1.50;1.50;;;3.30;89.00;;;;;;5033950;28;20180;-74
2021/12/20 05:47:02;;;;;;;1.77;1.67;;;3.30;89.00;;;;;;5038647;28;20208;-73
2021/12/20 05:49:28;;;;;;;2.50;2.30;;;3.30;89.10;;;;;;5036290;28;20186;-75
2021/12/20 05:51:53;;;;;;;1.80;1.70;;;3.30;89.10;;;;;;5041022;28;20262;-74
2021/12/20 05:54:19;;;;;;;2.53;1.97;;;3.30;89.00;;;;;;5037926;28;20259;-74
2021/12/20 05:56:45;;;;;;;1.50;1.40;;;3.30;89.00;;;;;;5039309;28;20185;-74
2021/12/20 05:59:12;;;;;;;1.70;1.60;;;3.30;89.00;;;;;;5039162;28;20181;-74
2021/12/20 06:01:38;;;;;;;1.73;1.63;;;3.30;88.80;;;;;;5033571;28;20188;-75
2021/12/20 06:04:04;;;;;;;2.43;1.70;;;3.30;88.90;;;;;;5036831;28;20187;-75
2021/12/20 06:06:31;;;;;;;2.30;2.10;;;3.30;88.90;;;;;;5034515;28;20188;-73
2021/12/20 06:08:57;;;;;;;1.97;1.83;;;3.30;88.80;;;;;;5034080;28;20263;-73
2021/12/20 06:11:24;;;;;;;2.03;1.87;;;3.30;88.80;;;;;;5037194;28;20200;-74
2021/12/20 06:13:50;;;;;;;1.93;1.83;;;3.30;88.60;;;;;;5036012;28;20236;-75
2021/12/20 06:16:16;;;;;;;1.73;1.63;;;3.30;88.60;;;;;;5038635;28;20191;-73
2021/12/20 06:18:42;;;;;;;1.80;1.70;;;3.30;88.60;;;;;;5037464;28;20675;-73
2021/12/20 06:21:08;;;;;;;1.57;1.47;;;3.40;88.60;;;;;;5031545;28;20176;-74
2021/12/20 06:23:33;;;;;;;1.83;1.73;;;3.40;88.50;;;;;;5036971;28;20187;-74
2021/12/20 06:25:59;;;;;;;1.87;1.63;;;3.40;88.40;;;;;;5038539;28;20175;-74
2021/12/20 06:28:25;;;;;;;2.40;2.20;;;3.40;88.20;;;;;;5037458;28;20270;-74
2021/12/20 06:30:50;;;;;;;1.00;1.00;;;3.40;88.10;;;;;;5036611;28;20267;-72
2021/12/20 06:33:17;;;;;;;1.60;1.50;;;3.40;88.00;;;;;;5037278;28;20689;-74
2021/12/20 06:35:43;;;;;;;1.67;1.57;;;3.40;87.90;;;;;;5035078;28;20192;-74
2021/12/20 06:38:11;;;;;;;1.70;1.60;;;3.40;87.80;;;;;;5036784;28;20184;-73
2021/12/20 06:40:37;;;;;;;1.47;1.47;;;3.50;87.90;;;;;;5035070;28;20179;-74
2021/12/20 06:43:04;;;;;;;1.27;1.27;;;3.50;87.70;;;;;;5035537;28;20223;-74
2021/12/20 06:45:30;;;;;;;1.47;1.37;;;3.50;87.30;;;;;;5031243;28;20187;-73
2021/12/20 06:47:56;;;;;;;1.20;1.20;;;3.50;87.20;;;;;;5035227;28;20212;-72
2021/12/20 06:50:21;;;;;;;1.40;1.30;;;3.50;86.40;;;;;;5035140;28;20178;-72
2021/12/20 06:52:47;;;;;;;1.47;1.37;;;3.60;86.60;;;;;;5035017;28;21667;-72
2021/12/20 06:55:13;;;;;;;1.20;1.20;;;3.70;86.70;;;;;;5033972;28;20187;-72
2021/12/20 06:57:41;;;;;;;2.47;2.27;;;3.70;86.10;;;;;;5038593;28;20188;-72
2021/12/20 07:00:07;;;;;;;1.80;0.90;;;3.70;86.00;;;;;;5035422;28;20184;-72
2021/12/20 07:02:33;;;;;;;1.37;1.30;;;3.80;85.90;;;;;;5038643;28;20292;-72
2021/12/20 07:04:59;;;;;;;1.40;1.40;;;3.80;85.90;;;;;;5037646;28;20752;-72
2021/12/20 07:07:25;;;;;;;1.17;1.03;;;3.80;86.00;;;;;;5036963;28;20239;-72
2021/12/20 07:09:50;;;;;;;1.20;1.20;;;3.70;86.20;;;;;;5037180;28;20263;-72
2021/12/20 07:12:16;;;;;;;1.10;1.00;;;3.70;86.40;;;;;;5034934;28;20573;-71
2021/12/20 07:14:42;;;;;;;1.20;1.20;;;3.70;86.30;;;;;;5040892;28;20180;-71
2021/12/20 07:17:08;;;;;;;1.30;1.30;;;3.60;86.30;;;;;;5038851;28;20180;-72
2021/12/20 07:19:34;;;;;;;1.63;1.00;;;3.60;86.50;;;;;;5036146;28;20190;-76
2021/12/20 07:21:59;;;;;;;1.00;1.00;;;3.60;86.40;;;;;;5038655;28;20617;-75
2021/12/20 07:24:25;;;;;;;1.60;1.50;;;3.60;86.60;;;;;;5035409;28;20226;-73
2021/12/20 07:26:51;;;;;;;1.53;1.13;;;3.60;86.60;;;;;;5034797;28;20287;-73
2021/12/20 07:29:17;;;;;;;1.53;1.43;;;3.60;86.40;;;;;;5038114;28;20204;-73
2021/12/20 07:31:44;;;;;;;0.90;0.90;;;3.80;86.50;;;;;;5036355;28;20266;-73
2021/12/20 07:34:10;;;;;;;1.10;1.10;;;4.00;86.10;;;;;;5036531;28;20195;-74
2021/12/20 07:36:37;;;;;;;1.77;1.67;;;4.20;85.30;;;;;;5036410;28;20190;-73
2021/12/20 07:39:04;;;;;;;1.33;1.17;;;4.30;84.50;;;;;;5038196;28;20669;-73
2021/12/20 07:41:30;;;;;;;1.27;1.27;;;4.30;84.20;;;;;;5042685;28;21655;-73
2021/12/20 07:43:55;;;;;;;1.00;1.00;;;4.30;84.20;;;;;;5037258;28;20188;-73
2021/12/20 07:46:21;;;;;;;0.90;0.90;;;4.30;84.00;;;;;;5035113;28;20180;-73
2021/12/20 07:48:47;;;;;;;1.33;1.33;;;4.40;83.80;;;;;;5035716;28;20206;-71
2021/12/20 07:51:13;;;;;;;1.23;1.23;;;4.40;83.60;;;;;;5033596;28;20186;-71
2021/12/20 07:53:39;;;;;;;1.43;1.43;;;4.70;83.40;;;;;;5039827;28;20184;-71
2021/12/20 07:56:05;;;;;;;1.77;1.67;;;5.10;82.90;;;;;;5036743;28;20187;-71
2021/12/20 07:58:31;;;;;;;1.13;1.07;;;5.30;82.10;;;;;;5038223;28;20191;-71
2021/12/20 08:00:58;;;;;;;1.13;1.13;;;5.60;81.60;;;;;;5037860;28;20219;-71
2021/12/20 08:03:24;;;;;;;1.43;1.43;;;5.90;80.60;;;;;;5038181;28;20238;-71
2021/12/20 08:05:50;;;;;;;1.30;1.30;;;6.20;79.60;;;;;;5034968;28;20631;-71
2021/12/20 08:08:16;;;;;;;1.07;1.07;;;6.60;79.00;;;;;;5035637;28;20223;-71
2021/12/20 08:10:42;;;;;;;1.10;1.10;;;6.70;77.60;;;;;;5035795;28;20184;-71
2021/12/20 08:13:09;;;;;;;1.00;1.00;;;6.60;76.70;;;;;;5041411;28;20261;-73
2021/12/20 08:15:35;;;;;;;1.50;1.50;;;6.30;77.10;;;;;;5042044;28;20179;-70
2021/12/20 08:18:00;;;;;;;1.83;1.17;;;6.00;77.80;;;;;;5039275;28;20184;-72
2021/12/20 08:20:26;;;;;;;1.27;1.27;;;5.80;78.40;;;;;;5039187;28;20977;-70
2021/12/20 08:22:52;;;;;;;1.20;1.20;;;5.70;78.10;;;;;;5039245;28;20176;-70
2021/12/20 08:25:19;;;;;;;0.70;0.70;;;5.70;78.00;;;;;;5040833;28;20183;-72
2021/12/20 08:27:46;;;;;;;0.70;0.70;;;5.60;78.10;;;;;;5040417;28;20671;-71
2021/12/20 08:30:12;;;;;;;0.70;0.70;;;5.50;78.10;;;;;;5038183;28;20321;-72
2021/12/20 08:32:38;;;;;;;1.07;0.93;;;5.50;78.40;;;;;;5037405;28;21011;-73
2021/12/20 08:35:07;;;;;;;1.33;1.27;;;5.50;78.40;;;;;;5036876;28;20195;-71
2021/12/20 08:37:33;;;;;;;0.80;0.80;;;5.70;78.60;;;;;;5036766;28;20233;-71
2021/12/20 08:39:59;;;;;;;1.97;1.10;;;5.70;77.80;;;;;;5041757;28;20605;-71
2021/12/20 08:42:25;;;;;;;1.00;1.00;;;5.50;78.00;;;;;;5038076;28;20313;-71
2021/12/20 08:44:50;;;;;;;0.63;0.63;;;5.30;78.60;;;;;;5044766;28;20192;-74
2021/12/20 08:47:17;;;;;;;1.20;0.87;;;5.20;78.70;;;;;;5039345;28;20582;-71
2021/12/20 08:49:43;;;;;;;3.27;0.80;;;5.20;78.70;;;;;;5043986;28;20179;-71
2021/12/20 08:52:10;;;;;;;0.90;0.90;;;5.10;78.80;;;;;;5039232;28;20266;-70
2021/12/20 08:54:36;;;;;;;0.77;0.77;;;5.10;79.30;;;;;;5042927;28;20190;-72
2021/12/20 08:57:02;;;;;;;0.87;0.87;;;5.20;79.20;;;;;;5036652;28;20944;-74
2021/12/20 08:59:28;;;;;;;4.43;0.80;;;5.10;78.50;;;;;;5038647;28;20191;-71
2021/12/20 09:01:54;;;;;;;3.90;1.10;;;5.10;78.60;;;;;;5037288;28;20184;-71
2021/12/20 09:04:20;;;;;;;0.73;0.73;;;5.10;79.00;;;;;;5039664;28;20653;-71
2021/12/20 09:06:46;;;;;;;0.77;0.77;;;5.10;79.30;;;;;;5037424;28;20215;-71
2021/12/20 09:09:15;;;;;;;0.90;0.90;;;5.10;79.20;;;;;;5040468;28;20276;-71
2021/12/20 09:11:41;;;;;;;0.97;0.90;;;5.10;79.00;;;;;;5043170;28;20562;-70
2021/12/20 09:14:07;;;;;;;0.93;0.93;;;5.10;79.30;;;;;;5037002;28;20179;-70
2021/12/20 09:16:33;;;;;;;0.93;0.93;;;5.10;79.30;;;;;;5038789;28;20183;-70
2021/12/20 09:18:58;;;;;;;0.70;0.70;;;5.10;79.30;;;;;;5033412;28;20178;-71
2021/12/20 09:21:24;;;;;;;0.90;0.90;;;5.20;79.30;;;;;;5037783;28;20861;-69
2021/12/20 09:23:50;;;;;;;0.80;0.80;;;5.30;79.10;;;;;;5037939;28;20515;-70
2021/12/20 09:26:16;;;;;;;0.90;0.90;;;5.30;78.50;;;;;;5037221;28;20176;-70
2021/12/20 09:28:42;;;;;;;4.50;1.53;;;5.40;78.50;;;;;;5038101;28;20313;-70
2021/12/20 09:31:08;;;;;;;1.80;1.70;;;5.40;78.80;;;;;;5038821;28;20769;-70
2021/12/20 09:33:35;;;;;;;1.53;1.43;;;5.60;78.40;;;;;;5036057;28;20612;-70
2021/12/20 09:36:02;;;;;;;1.40;1.40;;;5.70;77.80;;;;;;5031331;28;20211;-70
2021/12/20 09:38:30;;;;;;;4.43;0.93;;;5.70;77.40;;;;;;5034925;28;20192;-70
2021/12/20 09:43:40;;;;;;;1.10;1.10;;;5.40;77.40;;;;;;5031625;28;20275;-70
2021/12/20 09:46:06;;;;;;;1.00;1.00;;;5.40;77.90;;;;;;5032088;28;20190;-70
2021/12/20 09:48:35;;;;;;;0.80;0.80;;;5.50;77.80;;;;;;5036322;28;20290;-70
2021/12/20 09:51:01;;;;;;;0.83;0.83;;;5.50;77.10;;;;;;5034917;28;20564;-70
2021/12/20 09:53:27;;;;;;;1.10;1.10;;;5.40;77.10;;;;;;5041831;28;20179;-70
2021/12/20 09:55:53;;;;;;;1.43;1.33;;;5.40;77.30;;;;;;5035567;28;20564;-69
2021/12/20 09:58:22;;;;;;;0.93;0.93;;;5.40;77.40;;;;;;5033098;28;20198;-70
2021/12/20 10:00:48;;;;;;;1.03;1.03;;;5.30;77.50;;;;;;5033936;28;20184;-69
2021/12/20 10:03:18;;;;;;;1.57;1.47;;;5.20;78.10;;;;;;5031964;28;20215;-71
2021/12/20 10:05:44;;;;;;;6.03;1.53;;;5.20;78.40;;;;;;5035688;28;20272;-71
2021/12/20 10:08:15;;;;;;;1.17;1.10;;;5.30;78.30;;;;;;5036326;28;20538;-71
2021/12/20 10:10:42;;;;;;;0.70;0.70;;;5.20;78.10;;;;;;5036166;28;20211;-71
2021/12/20 10:13:29;;;;;;;1.10;1.10;;;5.20;78.20;;;;;;5041377;28;20175;-69
2021/12/20 10:15:56;;;;;;;0.90;0.90;;;5.20;78.40;;;;;;5033598;28;20189;-70
2021/12/20 10:18:23;;;;;;;0.90;0.90;;;5.20;78.60;;;;;;5038467;28;20184;-69
2021/12/20 10:21:07;;;;;;;0.77;0.77;;;5.30;78.30;;;;;;5038561;28;20196;-69
2021/12/20 10:23:39;;;;;;;0.80;0.80;;;5.30;78.10;;;;;;5036864;28;20897;-71
2021/12/20 10:26:21;;;;;;;0.73;0.73;;;5.30;78.20;;;;;;5038889;28;20180;-69
2021/12/20 10:28:53;;;;;;;0.87;0.87;;;5.20;78.50;;;;;;5033945;28;20312;-70
2021/12/20 10:31:21;;;;;;;2.77;0.60;;;5.20;78.70;;;;;;5033812;28;20192;-70
2021/12/20 10:33:55;;;;;;;0.87;0.87;;;5.10;79.00;;;;;;5032393;28;20567;-70
2021/12/20 10:36:22;;;;;;;0.70;0.70;;;5.10;79.50;;;;;;5030976;28;20187;-71
2021/12/20 10:38:56;;;;;;;2.53;0.80;;;5.20;79.70;;;;;;5034047;28;20185;-71
2021/12/20 10:41:35;;;;;;;1.00;1.00;;;5.20;80.10;;;;;;5072408;28;20183;-71
2021/12/20 10:44:19;;;;;;;1.20;1.13;;;5.10;80.50;;;;;;5036824;28;20575;-71
2021/12/20 10:46:48;;;;;;;1.30;1.23;;;5.10;81.00;;;;;;5040333;28;20312;-71
2021/12/20 10:49:14;;;;;;;1.00;0.90;;;5.10;81.50;;;;;;5041658;28;20278;-71
2021/12/20 10:51:49;;;;;;;1.20;1.20;;;5.10;81.90;;;;;;5036409;28;20211;-71
2021/12/20 10:54:18;;;;;;;1.57;1.57;;;5.10;81.90;;;;;;5037661;28;20177;-71
2021/12/20 10:57:03;;;;;;;1.30;1.30;;;5.10;82.30;;;;;;5028122;28;20184;-71
2021/12/20 10:59:35;;;;;;;1.10;1.10;;;5.10;82.10;;;;;;5035642;28;20275;-71
2021/12/20 11:05:01;;;;;;;7.40;0.70;;;5.20;81.00;;;;;;5037483;28;20192;-71
2021/12/20 11:10:07;;;;;;;0.57;0.57;;;5.10;80.90;;;;;;5034495;28;21019;-72
2021/12/20 11:12:34;;;;;;;0.67;0.67;;;5.00;81.10;;;;;;5030162;28;20211;-71
2021/12/20 11:15:12;;;;;;;0.83;0.83;;;5.00;81.30;;;;;;5038015;28;20211;-71
2021/12/20 11:17:44;;;;;;;1.70;1.07;;;5.10;81.50;;;;;;5039010;28;20220;-71
2021/12/20 11:20:10;;;;;;;1.00;1.00;;;5.20;81.50;;;;;;5031773;28;20701;-71
2021/12/20 11:22:35;;;;;;;1.17;0.80;;;5.20;81.10;;;;;;5035814;28;20190;-71
2021/12/20 11:25:05;;;;;;;0.90;0.90;;;5.10;80.60;;;;;;5029759;28;20190;-71
2021/12/20 11:27:36;;;;;;;3.10;0.70;;;5.10;80.80;;;;;;5035347;28;20211;-71
2021/12/20 11:30:25;;;;;;;1.00;0.90;;;5.00;81.10;;;;;;5035342;28;20191;-71
2021/12/20 11:32:52;;;;;;;1.00;1.00;;;5.00;81.20;;;;;;5036793;28;20179;-70
2021/12/20 11:35:20;;;;;;;0.70;0.70;;;4.90;81.30;;;;;;5035533;28;20279;-70
2021/12/20 11:37:46;;;;;;;0.60;0.60;;;4.70;81.60;;;;;;5038642;28;20180;-70
2021/12/20 11:40:14;;;;;;;0.70;0.70;;;4.70;82.10;;;;;;5038906;28;20191;-71
2021/12/20 11:42:40;;;;;;;0.90;0.90;;;4.70;82.20;;;;;;5036673;28;20216;-70
2021/12/20 11:45:08;;;;;;;0.53;0.53;;;4.70;82.30;;;;;;5035531;28;20219;-71
2021/12/20 11:48:01;;;;;;;1.17;0.80;;;4.70;82.40;;;;;;5029364;28;20409;-70
2021/12/20 11:50:39;;;;;;;0.60;0.60;;;4.60;82.60;;;;;;5033807;28;20194;-70
2021/12/20 11:53:10;;;;;;;0.67;0.67;;;4.70;82.60;;;;;;5035554;28;20574;-71
2021/12/20 11:55:43;;;;;;;1.33;0.77;;;4.60;82.90;;;;;;5038967;28;20851;-71
2021/12/20 11:58:21;;;;;;;0.67;0.67;;;4.50;83.10;;;;;;5038294;28;20179;-71
2021/12/20 12:00:52;;;;;;;0.73;0.73;;;4.50;83.20;;;;;;5042188;28;20765;-73
2021/12/20 12:03:27;;;;;;;0.70;0.70;;;4.40;83.30;;;;;;5037753;28;20327;-74
2021/12/20 12:06:01;;;;;;;0.73;0.70;;;4.30;83.20;;;;;;5033681;28;20608;-74
2021/12/20 12:08:39;;;;;;;0.53;0.53;;;4.30;83.20;;;;;;5036030;28;20206;-74
2021/12/20 12:11:04;;;;;;;0.50;0.50;;;4.30;82.90;;;;;;5035238;28;20208;-74
2021/12/20 12:14:04;;;;;;;0.70;0.70;;;4.20;82.80;;;;;;5038694;28;20941;-75
2021/12/20 12:16:54;;;;;;;1.83;0.50;;;4.20;83.10;;;;;;4990938;28;20250;-73
2021/12/20 12:19:36;;;;;;;0.50;0.50;;;4.10;83.60;;;;;;4997470;28;20212;-75
2021/12/20 12:22:02;;;;;;;0.70;0.70;;;4.00;84.40;;;;;;4994074;28;20201;-74
2021/12/20 12:24:46;;;;;;;0.90;0.90;;;3.90;84.90;;;;;;4997243;28;20204;-74
2021/12/20 12:27:32;;;;;;;0.77;0.77;;;3.80;85.40;;;;;;4991052;28;20427;-72
2021/12/20 12:30:30;;;;;;;0.90;0.90;;;3.70;85.80;;;;;;4993638;28;20647;-73
2021/12/20 12:32:56;;;;;;;0.90;0.90;;;3.70;85.90;;;;;;4953335;28;20246;-72
2021/12/20 12:35:38;;;;;;;1.77;1.00;;;3.70;86.00;;;;;;4952420;28;20625;-74
2021/12/20 12:38:33;;;;;;;0.80;0.80;;;3.70;85.90;;;;;;4953393;28;20262;-74
2021/12/20 12:41:04;;;;;;;1.10;1.10;;;3.70;85.90;;;;;;4955913;28;20234;-74
2021/12/20 12:43:50;;;;;;;0.60;0.60;;;3.60;86.00;;;;;;4958960;28;20190;-73
2021/12/20 12:46:36;;;;;;;0.80;0.80;;;3.60;85.60;;;;;;4953579;28;20281;-74
2021/12/20 12:49:20;;;;;;;0.83;0.73;;;3.70;85.70;;;;;;4955948;28;20194;-73
2021/12/20 12:51:46;;;;;;;0.87;0.87;;;3.80;85.70;;;;;;4953371;28;20715;-74
2021/12/20 12:54:33;;;;;;;3.30;1.50;;;4.00;85.30;;;;;;4952374;28;20682;-73
2021/12/20 12:57:21;;;;;;;1.00;1.00;;;4.20;84.60;;;;;;4912363;29;20714;-73
2021/12/20 12:59:50;;;;;;;0.97;0.90;;;4.30;83.30;;;;;;4900841;29;20273;-74
2021/12/20 13:02:22;;;;;;;1.80;1.00;;;4.40;82.60;;;;;;4917020;29;20196;-73
2021/12/20 13:04:54;;;;;;;1.10;1.10;;;4.50;82.60;;;;;;4904230;29;20682;-75
2021/12/20 13:07:25;;;;;;;1.77;1.50;;;4.50;81.80;;;;;;4900624;29;20250;-75
2021/12/20 13:09:53;;;;;;;1.50;1.40;;;4.50;81.10;;;;;;4932063;29;20605;-74
2021/12/20 13:12:35;;;;;;;1.80;1.27;;;4.50;80.80;;;;;;4946325;29;20266;-75
2021/12/20 13:17:45;;;;;;;1.17;1.17;;;4.50;80.70;;;;;;4943924;29;20199;-74
2021/12/20 13:23:05;;;;;;;0.90;0.90;;;4.40;80.30;;;;;;4945800;29;20807;-74
2021/12/20 13:26:09;;;;;;;0.90;0.90;;;4.30;77.60;;;;;;4944535;29;20191;-74
2021/12/20 13:28:40;;;;;;;1.43;1.30;;;4.20;77.70;;;;;;4925691;29;20251;-72
2021/12/20 13:31:16;;;;;;;1.23;1.13;;;4.20;77.30;;;;;;4924878;29;20211;-74